createdAt,value
2022-12-08T00:00:17.641Z,9.88
2022-12-08T00:02:46.659Z,7.57
2022-12-08T00:05:33.059Z,6.40
2022-12-08T00:08:21.234Z,6.38
2022-12-08T00:10:50.323Z,5.82
2022-12-08T00:13:19.381Z,5.68
2022-12-08T00:15:48.313Z,11.93
2022-12-08T00:18:17.483Z,4.68
2022-12-08T00:20:46.533Z,5.80
2022-12-08T00:23:17.094Z,6.45
2022-12-08T00:25:46.215Z,7.65
2022-12-08T00:28:15.203Z,7.68
2022-12-08T00:30:44.678Z,5.85
2022-12-08T00:33:13.895Z,8.73
2022-12-08T00:35:43.383Z,4.55
2022-12-08T00:38:12.563Z,8.80
2022-12-08T00:40:46.897Z,5.63
2022-12-08T00:43:16.435Z,5.95
2022-12-08T00:45:45.543Z,9.00
2022-12-08T00:48:14.551Z,6.65
2022-12-08T00:50:43.576Z,7.20
2022-12-08T00:53:12.544Z,6.40
2022-12-08T00:55:41.589Z,6.47
2022-12-08T00:58:12.008Z,6.68
2022-12-08T01:00:42.312Z,8.38
2022-12-08T01:03:11.744Z,8.20
2022-12-08T01:05:41.141Z,5.70
2022-12-08T01:08:10.508Z,5.20
2022-12-08T01:10:40.772Z,9.38
2022-12-08T01:13:11.478Z,8.00
2022-12-08T01:15:40.507Z,6.45
2022-12-08T01:18:09.504Z,8.55
2022-12-08T01:20:38.554Z,4.55
2022-12-08T01:23:07.621Z,6.53
2022-12-08T01:25:36.745Z,4.38
2022-12-08T01:28:06.835Z,6.07
2022-12-08T01:30:40.194Z,5.72
2022-12-08T01:33:09.345Z,5.90
2022-12-08T01:35:40.493Z,5.45
2022-12-08T01:38:09.447Z,8.90
2022-12-08T01:40:38.376Z,5.10
2022-12-08T01:43:07.555Z,5.18
2022-12-08T01:45:38.234Z,4.55
2022-12-08T01:48:12.723Z,10.60
2022-12-08T01:50:44.330Z,3.67
2022-12-08T01:53:18.104Z,8.65
2022-12-08T01:55:53.993Z,7.22
2022-12-08T01:58:28.390Z,3.20
2022-12-08T02:00:58.821Z,5.97
2022-12-08T02:03:32.900Z,8.20
2022-12-08T02:06:03.414Z,4.47
2022-12-08T02:08:33.043Z,5.85
2022-12-08T02:11:02.040Z,4.55
2022-12-08T02:13:32.823Z,7.65
2022-12-08T02:16:11.515Z,5.78
2022-12-08T02:19:22.380Z,4.78
2022-12-08T02:21:53.864Z,5.97
2022-12-08T02:24:32.801Z,7.10
2022-12-08T02:27:29.356Z,6.38
2022-12-08T02:30:25.300Z,5.13
2022-12-08T02:35:57.810Z,8.60
2022-12-08T02:38:45.768Z,6.43
2022-12-08T02:41:31.966Z,11.32
2022-12-08T02:44:07.449Z,4.35
2022-12-08T02:46:41.539Z,5.93
2022-12-08T02:49:14.724Z,5.10
2022-12-08T02:51:45.194Z,10.38
2022-12-08T02:54:15.632Z,5.70
2022-12-08T02:57:04.279Z,6.28
2022-12-08T02:59:44.197Z,6.28
2022-12-08T03:02:56.473Z,5.13
2022-12-08T03:05:40.222Z,5.32
2022-12-08T03:08:21.438Z,8.55
2022-12-08T03:10:58.365Z,7.22
2022-12-08T03:13:34.856Z,11.65
2022-12-08T03:16:08.584Z,6.70
2022-12-08T03:18:43.950Z,7.35
2022-12-08T03:21:16.152Z,7.32
2022-12-08T03:23:49.419Z,11.38
2022-12-08T03:26:24.092Z,10.77
2022-12-08T03:28:53.118Z,5.70
2022-12-08T03:31:26.213Z,7.03
2022-12-08T03:33:58.064Z,8.63
2022-12-08T03:36:27.845Z,6.45
2022-12-08T03:38:58.453Z,5.22
2022-12-08T03:41:27.912Z,4.78
2022-12-08T03:43:59.604Z,8.02
2022-12-08T03:48:59.122Z,7.72
2022-12-08T03:51:28.426Z,5.82
2022-12-08T03:53:58.846Z,5.88
2022-12-08T03:56:31.127Z,7.88
2022-12-08T03:59:00.570Z,7.30
2022-12-08T04:01:29.862Z,8.63
2022-12-08T04:03:59.093Z,4.80
2022-12-08T04:06:28.207Z,10.85
2022-12-08T04:08:58.747Z,3.03
2022-12-08T04:11:27.754Z,4.53
2022-12-08T04:13:56.831Z,7.18
2022-12-08T04:16:28.095Z,5.47
2022-12-08T04:18:57.180Z,3.28
2022-12-08T04:21:26.242Z,4.60
2022-12-08T04:24:00.816Z,6.03
2022-12-08T04:26:32.115Z,6.45
2022-12-08T04:29:01.160Z,5.63
2022-12-08T04:31:30.461Z,5.38
2022-12-08T04:33:59.464Z,6.55
2022-12-08T04:36:28.502Z,5.85
2022-12-08T04:38:57.701Z,7.95
2022-12-08T04:41:27.877Z,4.95
2022-12-08T04:43:58.338Z,5.70
2022-12-08T04:46:27.643Z,6.38
2022-12-08T04:48:57.222Z,5.85
2022-12-08T04:51:27.476Z,6.68
2022-12-08T04:53:56.466Z,7.07
2022-12-08T04:56:25.638Z,7.47
2022-12-08T04:58:54.735Z,4.47
2022-12-08T05:01:25.199Z,4.55
2022-12-08T05:03:54.216Z,5.57
2022-12-08T05:06:24.584Z,4.38
2022-12-08T05:08:53.676Z,6.80
2022-12-08T05:11:22.740Z,4.07
2022-12-08T05:13:51.842Z,4.90
2022-12-08T05:16:21.900Z,6.13
2022-12-08T05:18:52.401Z,5.43
2022-12-08T05:21:21.550Z,4.63
2022-12-08T05:23:50.606Z,5.20
2022-12-08T05:26:20.040Z,7.93
2022-12-08T05:28:49.293Z,10.13
2022-12-08T05:31:18.609Z,7.00
2022-12-08T05:33:48.391Z,6.80
2022-12-08T05:36:19.470Z,6.32
2022-12-08T05:38:48.859Z,9.18
2022-12-08T05:41:20.209Z,6.25
2022-12-08T05:43:50.309Z,6.57
2022-12-08T05:46:20.211Z,5.82
2022-12-08T05:48:49.328Z,5.80
2022-12-08T05:51:22.760Z,9.80
2022-12-08T05:53:52.911Z,5.03
2022-12-08T05:56:22.650Z,8.93
2022-12-08T05:58:51.991Z,4.93
2022-12-08T06:01:23.833Z,4.38
2022-12-08T06:03:53.286Z,7.15
2022-12-08T06:06:23.964Z,5.55
2022-12-08T06:08:53.171Z,4.97
2022-12-08T06:11:24.667Z,5.68
2022-12-08T06:13:54.607Z,9.75
2022-12-08T06:16:24.457Z,6.78
2022-12-08T06:18:53.645Z,5.50
2022-12-08T06:21:24.357Z,4.63
2022-12-08T06:23:55.456Z,8.55
2022-12-08T06:26:24.654Z,4.80
2022-12-08T06:28:54.059Z,5.28
2022-12-08T06:31:24.712Z,4.00
2022-12-08T06:33:54.979Z,5.82
2022-12-08T06:36:27.953Z,7.90
2022-12-08T06:38:57.217Z,4.10
2022-12-08T06:41:26.896Z,6.57
2022-12-08T06:43:58.408Z,7.43
2022-12-08T06:46:27.877Z,8.35
2022-12-08T06:48:56.846Z,4.07
2022-12-08T06:51:27.178Z,6.47
2022-12-08T06:53:56.321Z,4.07
2022-12-08T06:56:28.080Z,4.20
2022-12-08T06:58:57.082Z,7.15
2022-12-08T07:01:26.304Z,6.00
2022-12-08T07:03:55.429Z,4.97
2022-12-08T07:06:26.766Z,5.70
2022-12-08T07:08:55.966Z,4.40
2022-12-08T07:11:25.565Z,5.07
2022-12-08T07:13:56.754Z,3.38
2022-12-08T07:16:26.082Z,4.97
2022-12-08T07:18:55.207Z,6.60
2022-12-08T07:21:24.283Z,4.28
2022-12-08T07:23:57.829Z,5.95
2022-12-08T07:26:28.052Z,4.47
2022-12-08T07:28:57.116Z,6.53
2022-12-08T07:31:28.576Z,8.15
2022-12-08T07:33:58.779Z,3.53
2022-12-08T07:36:29.031Z,4.97
2022-12-08T07:38:59.899Z,3.53
2022-12-08T07:41:29.137Z,5.18
2022-12-08T07:43:58.267Z,4.32
2022-12-08T07:46:28.068Z,7.63
2022-12-08T07:48:57.570Z,5.63
2022-12-08T07:51:26.759Z,6.43
2022-12-08T07:53:56.010Z,5.18
2022-12-08T07:56:26.547Z,3.67
2022-12-08T07:58:55.553Z,3.22
2022-12-08T08:01:27.249Z,4.32
2022-12-08T08:03:58.507Z,6.03
2022-12-08T08:06:27.674Z,5.93
2022-12-08T08:08:56.622Z,3.47
2022-12-08T08:11:27.099Z,9.32
2022-12-08T08:13:56.167Z,9.40
2022-12-08T08:16:25.685Z,7.70
2022-12-08T08:18:54.822Z,4.78
2022-12-08T08:24:13.243Z,4.50
2022-12-08T08:26:44.261Z,4.63
2022-12-08T08:29:13.324Z,6.05
2022-12-08T08:31:42.404Z,4.63
2022-12-08T08:34:12.807Z,3.30
2022-12-08T08:36:41.880Z,3.38
2022-12-08T08:39:10.951Z,7.28
2022-12-08T08:41:40.422Z,4.25
2022-12-08T08:44:10.845Z,3.63
2022-12-08T08:46:39.997Z,5.28
2022-12-08T08:49:09.237Z,7.82
2022-12-08T08:51:38.505Z,6.85
2022-12-08T08:54:07.683Z,6.18
2022-12-08T08:56:36.721Z,7.10
2022-12-08T08:59:05.699Z,6.05
2022-12-08T09:01:36.173Z,8.43
2022-12-08T09:04:05.305Z,5.18
2022-12-08T09:06:34.522Z,5.22
2022-12-08T09:09:03.550Z,5.50
2022-12-08T09:11:33.873Z,6.75
2022-12-08T09:14:02.926Z,5.22
2022-12-08T09:16:34.149Z,5.00
2022-12-08T09:19:07.971Z,7.32
2022-12-08T09:21:37.819Z,9.07
2022-12-08T09:24:08.410Z,8.88
2022-12-08T09:26:37.442Z,8.15
2022-12-08T09:29:06.568Z,8.25
2022-12-08T09:31:35.655Z,9.73
2022-12-08T09:34:06.121Z,7.65
2022-12-08T09:36:36.595Z,10.25
2022-12-08T09:39:05.610Z,7.60
2022-12-08T09:41:43.304Z,5.82
2022-12-08T09:44:57.408Z,8.40
2022-12-08T09:47:35.488Z,4.07
2022-12-08T09:50:13.654Z,5.28
2022-12-08T09:52:48.182Z,8.20
2022-12-08T09:55:23.848Z,8.70
2022-12-08T09:58:01.304Z,5.10
2022-12-08T10:00:30.700Z,4.72
2022-12-08T10:03:00.269Z,4.40
2022-12-08T10:05:33.344Z,7.75
2022-12-08T10:08:13.541Z,4.45
2022-12-08T10:10:53.489Z,9.50
2022-12-08T10:13:29.729Z,8.35
2022-12-08T10:16:15.262Z,5.80
2022-12-08T10:18:48.230Z,7.50
2022-12-08T10:21:20.600Z,5.55
2022-12-08T10:23:54.574Z,8.13
2022-12-08T10:26:23.772Z,8.98
2022-12-08T10:28:53.013Z,6.28
2022-12-08T10:31:24.417Z,8.00
2022-12-08T10:33:59.638Z,8.90
2022-12-08T10:36:48.303Z,6.07
2022-12-08T10:39:36.959Z,7.45
2022-12-08T10:42:18.438Z,7.95
2022-12-08T10:45:02.030Z,5.75
2022-12-08T10:47:37.950Z,7.53
2022-12-08T10:50:19.398Z,9.48
2022-12-08T10:52:56.795Z,10.98
2022-12-08T10:55:28.172Z,8.05
2022-12-08T10:57:57.508Z,5.13
2022-12-08T11:00:29.053Z,7.93
2022-12-08T11:03:00.703Z,6.55
2022-12-08T11:05:34.870Z,9.40
2022-12-08T11:08:06.028Z,6.78
2022-12-08T11:10:39.296Z,6.57
2022-12-08T11:13:19.810Z,8.57
2022-12-08T11:15:49.048Z,6.80
2022-12-08T11:18:28.879Z,9.07
2022-12-08T11:21:02.004Z,4.75
2022-12-08T11:23:31.735Z,8.32
2022-12-08T11:26:07.543Z,8.75
2022-12-08T11:28:36.714Z,13.05
2022-12-08T11:31:23.771Z,7.60
2022-12-08T11:33:54.208Z,9.25
2022-12-08T11:36:26.868Z,7.13
2022-12-08T11:39:01.599Z,7.68
2022-12-08T11:41:38.038Z,8.73
2022-12-08T11:44:20.640Z,8.55
2022-12-08T11:46:57.031Z,7.07
2022-12-08T11:49:34.701Z,7.28
2022-12-08T11:52:12.285Z,5.70
2022-12-08T11:54:46.677Z,8.00
2022-12-08T11:57:20.741Z,8.07
2022-12-08T11:59:51.424Z,7.63
2022-12-08T12:02:22.830Z,8.52
2022-12-08T12:04:56.458Z,9.57
2022-12-08T12:07:54.246Z,8.98
2022-12-08T12:10:42.172Z,7.55
2022-12-08T12:13:34.158Z,14.65
2022-12-08T12:16:30.462Z,4.68
2022-12-08T12:19:01.528Z,4.55
2022-12-08T12:21:35.882Z,6.07
2022-12-08T12:24:08.090Z,8.05
2022-12-08T12:26:39.174Z,7.45
2022-12-08T12:29:17.014Z,9.43
2022-12-08T12:31:53.338Z,7.65
2022-12-08T12:34:26.269Z,12.13
2022-12-08T12:36:57.852Z,11.38
2022-12-08T12:39:30.864Z,10.07
2022-12-08T12:42:01.877Z,7.80
2022-12-08T12:44:43.553Z,9.63
2022-12-08T12:47:37.327Z,7.72
2022-12-08T12:50:09.320Z,11.00
2022-12-08T12:52:42.686Z,7.03
2022-12-08T12:55:44.891Z,9.07
2022-12-08T12:58:39.312Z,9.05
2022-12-08T13:01:57.128Z,6.15
2022-12-08T13:04:34.305Z,8.27
2022-12-08T13:07:03.942Z,9.10
2022-12-08T13:09:36.877Z,10.52
2022-12-08T13:12:11.580Z,10.73
2022-12-08T13:14:48.183Z,8.13
2022-12-08T13:17:25.685Z,8.85
2022-12-08T13:19:58.894Z,8.30
2022-12-08T13:23:02.537Z,8.57
2022-12-08T13:25:54.311Z,8.23
2022-12-08T13:28:28.983Z,8.43
2022-12-08T13:30:59.865Z,9.30
2022-12-08T13:33:33.599Z,8.15
2022-12-08T13:36:23.892Z,9.43
2022-12-08T13:38:58.156Z,9.27
2022-12-08T13:41:35.920Z,10.27
2022-12-08T13:45:11.356Z,7.20
2022-12-08T13:47:33.522Z,7.97
2022-12-08T13:58:51.370Z,9.90
2022-12-08T14:01:23.301Z,8.85
2022-12-08T14:06:50.183Z,9.68
2022-12-08T14:11:58.466Z,12.30
2022-12-08T14:15:01.291Z,8.38
2022-12-08T14:17:25.276Z,9.32
2022-12-08T14:19:56.847Z,10.95
2022-12-08T14:22:26.392Z,8.13
2022-12-08T14:24:59.515Z,10.75
2022-12-08T14:27:33.770Z,10.20
2022-12-08T14:30:07.576Z,5.67
2022-12-08T14:32:44.344Z,7.03
2022-12-08T14:35:21.226Z,13.85
2022-12-08T14:37:54.937Z,6.75
2022-12-08T14:40:35.320Z,7.10
2022-12-08T14:43:16.518Z,11.73
2022-12-08T14:45:50.837Z,8.10
2022-12-08T14:48:25.522Z,13.25
2022-12-08T14:51:05.585Z,9.57
2022-12-08T14:53:43.035Z,11.10
2022-12-08T14:56:21.688Z,8.25
2022-12-08T14:59:02.631Z,11.20
2022-12-08T15:01:32.414Z,11.18
2022-12-08T15:04:09.888Z,8.50
2022-12-08T15:06:39.589Z,7.15
2022-12-08T15:09:19.059Z,10.93
2022-12-08T15:12:02.130Z,9.55
2022-12-08T15:14:34.208Z,9.63
2022-12-08T15:17:03.470Z,8.20
2022-12-08T15:19:34.238Z,11.13
2022-12-08T15:22:13.398Z,11.38
2022-12-08T15:24:42.498Z,8.18
2022-12-08T15:27:18.612Z,9.82
2022-12-08T15:29:48.965Z,12.70
2022-12-08T15:32:20.344Z,9.38
2022-12-08T15:34:49.723Z,11.13
2022-12-08T15:37:23.016Z,8.00
2022-12-08T15:39:53.013Z,10.77
2022-12-08T15:42:23.570Z,12.40
2022-12-08T15:44:52.873Z,9.40
2022-12-08T15:47:24.028Z,8.02
2022-12-08T15:49:53.886Z,11.57
2022-12-08T15:52:25.766Z,14.20
2022-12-08T15:54:55.054Z,10.52
2022-12-08T16:00:51.809Z,14.52
2022-12-08T16:09:13.097Z,10.65
2022-12-08T16:12:07.732Z,9.03
2022-12-08T16:17:33.174Z,9.93
2022-12-08T16:20:03.808Z,15.23
2022-12-08T16:22:56.757Z,14.60
2022-12-08T16:25:36.316Z,11.68
2022-12-08T16:28:52.009Z,11.95
2022-12-08T16:31:13.331Z,13.85
2022-12-08T16:33:43.920Z,14.00
2022-12-08T16:36:12.938Z,9.68
2022-12-08T16:38:42.088Z,10.15
2022-12-08T16:41:32.693Z,13.85
2022-12-08T16:44:03.898Z,13.43
2022-12-08T16:46:36.107Z,14.00
2022-12-08T16:49:06.274Z,16.45
2022-12-08T16:51:35.812Z,13.57
2022-12-08T16:54:05.086Z,15.82
2022-12-08T16:56:34.471Z,13.63
2022-12-08T16:59:07.055Z,12.98
2022-12-08T17:01:38.545Z,17.10
2022-12-08T17:04:30.429Z,15.40
2022-12-08T17:07:00.404Z,12.18
2022-12-08T17:09:30.915Z,12.35
2022-12-08T17:12:03.675Z,16.30
2022-12-08T17:14:35.788Z,12.95
2022-12-08T17:17:06.568Z,11.52
2022-12-08T17:19:36.105Z,17.35
2022-12-08T17:22:05.796Z,15.32
2022-12-08T17:24:38.295Z,11.25
2022-12-08T17:27:07.769Z,14.10
2022-12-08T17:29:38.121Z,12.73
2022-12-08T17:32:09.727Z,12.25
2022-12-08T17:34:39.072Z,12.25
2022-12-08T17:37:08.200Z,13.88
2022-12-08T17:39:38.690Z,11.68
2022-12-08T17:42:08.089Z,16.13
2022-12-08T17:44:37.270Z,13.80
2022-12-08T17:47:08.272Z,16.08
2022-12-08T17:49:37.397Z,13.75
2022-12-08T17:52:08.187Z,16.40
2022-12-08T17:54:37.892Z,14.77
2022-12-08T17:57:07.050Z,14.52
2022-12-08T17:59:36.663Z,17.13
2022-12-08T18:02:05.840Z,17.15
2022-12-08T18:04:36.379Z,14.63
2022-12-08T18:07:05.507Z,14.30
2022-12-08T18:09:34.761Z,13.52
2022-12-08T18:12:03.916Z,15.93
2022-12-08T18:14:33.057Z,15.75
2022-12-08T18:17:02.767Z,15.52
2022-12-08T18:19:32.609Z,11.63
2022-12-08T18:22:03.225Z,14.68
2022-12-08T18:24:32.544Z,13.30
2022-12-08T18:27:01.955Z,18.63
2022-12-08T18:29:31.065Z,16.30
2022-12-08T18:32:00.842Z,13.40
2022-12-08T18:34:30.206Z,13.90
2022-12-08T18:36:59.422Z,13.15
2022-12-08T18:39:31.697Z,16.65
2022-12-08T18:42:02.736Z,17.75
2022-12-08T18:44:31.737Z,18.40
2022-12-08T18:47:00.920Z,16.42
2022-12-08T18:49:29.955Z,14.55
2022-12-08T18:51:59.045Z,15.13
2022-12-08T18:54:57.782Z,14.43
2022-12-08T18:57:20.359Z,13.52
2022-12-08T18:59:54.225Z,16.60
2022-12-08T19:02:23.938Z,15.43
2022-12-08T19:04:56.825Z,14.63
2022-12-08T19:07:26.038Z,16.33
2022-12-08T19:09:56.541Z,16.92
2022-12-08T19:12:25.497Z,15.27
2022-12-08T19:14:54.691Z,17.15
2022-12-08T19:17:23.740Z,18.67
2022-12-08T19:19:53.083Z,14.57
2022-12-08T19:22:22.101Z,19.90
2022-12-08T19:24:51.259Z,18.73
2022-12-08T19:27:21.721Z,15.75
2022-12-08T19:29:50.994Z,16.15
2022-12-08T19:32:20.180Z,18.05
2022-12-08T19:34:49.667Z,15.25
2022-12-08T19:37:18.746Z,21.40
2022-12-08T19:40:05.921Z,21.63
2022-12-08T19:42:54.070Z,18.48
2022-12-08T19:45:23.662Z,19.83
2022-12-08T19:47:53.184Z,16.83
2022-12-08T19:50:37.692Z,16.30
2022-12-08T19:53:08.448Z,17.33
2022-12-08T19:55:38.216Z,15.52
2022-12-08T19:58:09.703Z,12.23
2022-12-08T20:00:40.253Z,16.48
2022-12-08T20:03:09.608Z,17.40
2022-12-08T20:05:41.944Z,19.13
2022-12-08T20:08:11.416Z,22.85
2022-12-08T20:10:43.383Z,16.50
2022-12-08T20:13:36.610Z,20.20
2022-12-08T20:16:06.111Z,16.75
2022-12-08T20:18:36.513Z,25.15
2022-12-08T20:21:06.099Z,17.38
2022-12-08T20:23:35.810Z,20.45
2022-12-08T20:26:06.130Z,19.33
2022-12-08T20:28:37.311Z,19.10
2022-12-08T20:31:06.996Z,17.40
2022-12-08T20:33:36.351Z,20.80
2022-12-08T20:36:07.603Z,19.45
2022-12-08T20:38:37.015Z,17.00
2022-12-08T20:41:10.169Z,24.60
2022-12-08T20:43:41.224Z,18.33
2022-12-08T20:46:11.157Z,14.73
2022-12-08T20:48:40.511Z,14.73
2022-12-08T20:51:09.813Z,19.48
2022-12-08T20:53:38.882Z,21.45
2022-12-08T20:56:09.134Z,16.63
2022-12-08T20:58:38.152Z,16.73
2022-12-08T21:01:12.371Z,17.30
2022-12-08T21:03:42.254Z,15.93
2022-12-08T21:06:11.894Z,19.50
2022-12-08T21:08:41.340Z,21.23
2022-12-08T21:11:11.742Z,21.20
2022-12-08T21:13:41.019Z,16.52
2022-12-08T21:16:15.233Z,19.98
2022-12-08T21:18:44.333Z,20.20
2022-12-08T21:21:15.762Z,20.77
2022-12-08T21:23:45.310Z,20.77
2022-12-08T21:26:16.543Z,18.60
2022-12-08T21:28:45.961Z,17.08
2022-12-08T21:31:18.966Z,18.80
2022-12-08T21:33:48.230Z,19.05
2022-12-08T21:36:19.746Z,16.45
2022-12-08T21:38:49.367Z,15.43
2022-12-08T21:41:40.964Z,19.02
2022-12-08T21:44:12.596Z,16.98
2022-12-08T21:46:43.720Z,20.33
2022-12-08T21:49:12.965Z,18.27
2022-12-08T21:51:42.813Z,16.42
2022-12-08T21:54:18.347Z,16.80
2022-12-08T21:56:50.457Z,14.68
2022-12-08T21:59:20.962Z,16.98
2022-12-08T22:01:51.780Z,16.17
2022-12-08T22:04:22.690Z,23.33
2022-12-08T22:06:53.300Z,22.52
2022-12-08T22:09:23.771Z,20.17
2022-12-08T22:11:53.046Z,16.40
2022-12-08T22:14:22.136Z,23.38
2022-12-08T22:16:52.642Z,17.55
2022-12-08T22:19:22.201Z,17.60
2022-12-08T22:21:51.437Z,18.27
2022-12-08T22:24:20.601Z,17.73
2022-12-08T22:26:49.954Z,18.42
2022-12-08T22:29:19.508Z,24.10
2022-12-08T22:31:48.793Z,24.15
2022-12-08T22:34:19.544Z,21.63
2022-12-08T22:36:49.132Z,20.65
2022-12-08T22:39:19.190Z,21.25
2022-12-08T22:41:48.485Z,20.17
2022-12-08T22:44:17.561Z,22.52
2022-12-08T22:46:46.732Z,24.77
2022-12-08T22:49:15.857Z,20.48
2022-12-08T22:51:46.498Z,20.63
2022-12-08T22:54:15.549Z,14.23
2022-12-08T22:56:44.579Z,19.35
2022-12-08T22:59:13.666Z,21.98
2022-12-08T23:01:42.995Z,16.77
2022-12-08T23:04:17.408Z,17.67
2022-12-08T23:09:17.253Z,20.58
2022-12-08T23:11:46.380Z,18.42
2022-12-08T23:14:15.362Z,20.10
2022-12-08T23:16:44.937Z,18.00
2022-12-08T23:19:14.814Z,24.38
2022-12-08T23:21:43.802Z,18.63
2022-12-08T23:24:14.561Z,22.30
2022-12-08T23:26:44.354Z,20.75
2022-12-08T23:29:13.479Z,19.35
2022-12-08T23:31:42.577Z,19.85
2022-12-08T23:34:12.163Z,19.40
2022-12-08T23:36:41.412Z,18.42
2022-12-08T23:39:13.321Z,18.65
2022-12-08T23:41:43.226Z,17.80
2022-12-08T23:44:12.577Z,23.60
2022-12-08T23:46:42.177Z,18.17
2022-12-08T23:49:11.470Z,19.10
2022-12-08T23:51:40.457Z,16.38
2022-12-08T23:54:09.777Z,19.65
2022-12-08T23:56:40.260Z,21.38
2022-12-08T23:59:09.402Z,21.75
